sensor_id;sensor_type;location;lat;lon;timestamp;P1;durP1;ratioP1;P2;durP2;ratioP2
2119;SDS011;1066;52.540;13.420;2022-12-24T00:01:50;9.80;;;6.57;;
2119;SDS011;1066;52.540;13.420;2022-12-24T00:04:15;7.87;;;6.40;;
2119;SDS011;1066;52.540;13.420;2022-12-24T00:06:40;8.93;;;7.10;;
2119;SDS011;1066;52.540;13.420;2022-12-24T00:09:06;9.60;;;7.63;;
2119;SDS011;1066;52.540;13.420;2022-12-24T00:11:31;7.97;;;6.90;;
2119;SDS011;1066;52.540;13.420;2022-12-24T00:13:57;8.17;;;6.60;;
2119;SDS011;1066;52.540;13.420;2022-12-24T00:16:22;8.23;;;6.67;;
2119;SDS011;1066;52.540;13.420;2022-12-24T00:18:48;8.60;;;6.90;;
2119;SDS011;1066;52.540;13.420;2022-12-24T00:21:13;8.77;;;7.03;;
2119;SDS011;1066;52.540;13.420;2022-12-24T00:23:39;7.70;;;6.77;;
2119;SDS011;1066;52.540;13.420;2022-12-24T00:26:05;9.50;;;7.10;;
2119;SDS011;1066;52.540;13.420;2022-12-24T00:28:30;6.60;;;5.80;;
2119;SDS011;1066;52.540;13.420;2022-12-24T00:30:55;7.20;;;5.77;;
2119;SDS011;1066;52.540;13.420;2022-12-24T00:33:21;8.00;;;7.13;;
2119;SDS011;1066;52.540;13.420;2022-12-24T00:35:48;9.37;;;7.13;;
2119;SDS011;1066;52.540;13.420;2022-12-24T00:38:14;7.90;;;6.50;;
2119;SDS011;1066;52.540;13.420;2022-12-24T00:40:40;7.07;;;6.40;;
2119;SDS011;1066;52.540;13.420;2022-12-24T00:43:05;8.57;;;6.57;;
2119;SDS011;1066;52.540;13.420;2022-12-24T00:45:30;7.50;;;6.50;;
2119;SDS011;1066;52.540;13.420;2022-12-24T00:47:55;7.00;;;6.10;;
2119;SDS011;1066;52.540;13.420;2022-12-24T00:50:21;9.20;;;6.10;;
2119;SDS011;1066;52.540;13.420;2022-12-24T00:52:46;7.53;;;5.77;;
2119;SDS011;1066;52.540;13.420;2022-12-24T00:55:12;8.13;;;6.10;;
2119;SDS011;1066;52.540;13.420;2022-12-24T00:57:38;7.83;;;6.30;;
2119;SDS011;1066;52.540;13.420;2022-12-24T01:00:03;8.63;;;6.73;;
2119;SDS011;1066;52.540;13.420;2022-12-24T01:02:29;12.63;;;7.10;;
2119;SDS011;1066;52.540;13.420;2022-12-24T01:04:55;7.40;;;6.13;;
2119;SDS011;1066;52.540;13.420;2022-12-24T01:07:41;7.80;;;6.00;;
2119;SDS011;1066;52.540;13.420;2022-12-24T01:10:08;8.57;;;5.90;;
2119;SDS011;1066;52.540;13.420;2022-12-24T01:12:34;6.70;;;6.10;;
2119;SDS011;1066;52.540;13.420;2022-12-24T01:15:00;8.47;;;6.00;;
2119;SDS011;1066;52.540;13.420;2022-12-24T01:17:25;9.37;;;7.03;;
2119;SDS011;1066;52.540;13.420;2022-12-24T01:19:50;9.00;;;6.97;;
2119;SDS011;1066;52.540;13.420;2022-12-24T01:22:16;9.90;;;6.87;;
2119;SDS011;1066;52.540;13.420;2022-12-24T01:24:41;10.10;;;6.03;;
2119;SDS011;1066;52.540;13.420;2022-12-24T01:27:07;8.30;;;7.03;;
2119;SDS011;1066;52.540;13.420;2022-12-24T01:29:32;8.07;;;7.27;;
2119;SDS011;1066;52.540;13.420;2022-12-24T01:31:58;8.13;;;6.97;;
2119;SDS011;1066;52.540;13.420;2022-12-24T01:34:23;9.40;;;7.73;;
2119;SDS011;1066;52.540;13.420;2022-12-24T01:36:49;8.13;;;6.43;;
2119;SDS011;1066;52.540;13.420;2022-12-24T01:39:14;9.90;;;7.30;;
2119;SDS011;1066;52.540;13.420;2022-12-24T01:41:39;8.67;;;6.57;;
2119;SDS011;1066;52.540;13.420;2022-12-24T01:46:50;9.43;;;8.30;;
2119;SDS011;1066;52.540;13.420;2022-12-24T01:49:18;9.43;;;7.60;;
2119;SDS011;1066;52.540;13.420;2022-12-24T01:56:46;9.30;;;8.40;;
2119;SDS011;1066;52.540;13.420;2022-12-24T01:59:13;8.83;;;7.60;;
2119;SDS011;1066;52.540;13.420;2022-12-24T02:01:39;9.00;;;7.10;;
2119;SDS011;1066;52.540;13.420;2022-12-24T02:04:11;8.73;;;6.90;;
2119;SDS011;1066;52.540;13.420;2022-12-24T02:06:41;9.00;;;7.80;;
2119;SDS011;1066;52.540;13.420;2022-12-24T02:09:06;11.30;;;8.10;;
2119;SDS011;1066;52.540;13.420;2022-12-24T02:11:32;11.03;;;7.60;;
2119;SDS011;1066;52.540;13.420;2022-12-24T02:13:59;10.00;;;7.80;;
2119;SDS011;1066;52.540;13.420;2022-12-24T02:16:44;8.57;;;7.17;;
2119;SDS011;1066;52.540;13.420;2022-12-24T02:19:34;9.83;;;7.77;;
2119;SDS011;1066;52.540;13.420;2022-12-24T02:27:59;8.43;;;7.17;;
2119;SDS011;1066;52.540;13.420;2022-12-24T02:30:51;10.30;;;8.50;;
2119;SDS011;1066;52.540;13.420;2022-12-24T02:33:24;8.50;;;6.60;;
2119;SDS011;1066;52.540;13.420;2022-12-24T02:36:18;9.07;;;7.17;;
2119;SDS011;1066;52.540;13.420;2022-12-24T02:38:48;8.80;;;7.70;;
2119;SDS011;1066;52.540;13.420;2022-12-24T02:41:28;7.43;;;6.73;;
2119;SDS011;1066;52.540;13.420;2022-12-24T02:44:19;11.73;;;7.47;;
2119;SDS011;1066;52.540;13.420;2022-12-24T02:46:46;7.93;;;7.13;;
2119;SDS011;1066;52.540;13.420;2022-12-24T02:49:12;8.10;;;7.30;;
2119;SDS011;1066;52.540;13.420;2022-12-24T02:51:38;8.63;;;7.07;;
2119;SDS011;1066;52.540;13.420;2022-12-24T02:54:03;9.40;;;7.10;;
2119;SDS011;1066;52.540;13.420;2022-12-24T02:56:48;8.40;;;7.50;;
2119;SDS011;1066;52.540;13.420;2022-12-24T03:13:09;8.43;;;7.30;;
2119;SDS011;1066;52.540;13.420;2022-12-24T03:15:41;9.27;;;7.60;;
2119;SDS011;1066;52.540;13.420;2022-12-24T03:18:07;7.60;;;6.77;;
2119;SDS011;1066;52.540;13.420;2022-12-24T03:20:39;10.60;;;8.10;;
2119;SDS011;1066;52.540;13.420;2022-12-24T03:23:06;9.33;;;8.00;;
2119;SDS011;1066;52.540;13.420;2022-12-24T03:25:32;10.30;;;8.23;;
2119;SDS011;1066;52.540;13.420;2022-12-24T03:27:59;8.50;;;7.60;;
2119;SDS011;1066;52.540;13.420;2022-12-24T03:30:26;11.40;;;7.93;;
2119;SDS011;1066;52.540;13.420;2022-12-24T03:32:51;10.43;;;7.00;;
2119;SDS011;1066;52.540;13.420;2022-12-24T03:35:17;9.50;;;6.90;;
2119;SDS011;1066;52.540;13.420;2022-12-24T03:37:42;9.00;;;8.10;;
2119;SDS011;1066;52.540;13.420;2022-12-24T03:40:08;8.53;;;7.53;;
2119;SDS011;1066;52.540;13.420;2022-12-24T03:42:33;10.60;;;8.27;;
2119;SDS011;1066;52.540;13.420;2022-12-24T03:44:59;12.97;;;8.87;;
2119;SDS011;1066;52.540;13.420;2022-12-24T03:47:24;11.87;;;8.10;;
2119;SDS011;1066;52.540;13.420;2022-12-24T03:49:49;9.20;;;7.47;;
2119;SDS011;1066;52.540;13.420;2022-12-24T03:52:15;9.17;;;6.77;;
2119;SDS011;1066;52.540;13.420;2022-12-24T03:54:40;11.77;;;8.50;;
2119;SDS011;1066;52.540;13.420;2022-12-24T03:57:05;11.90;;;7.57;;
2119;SDS011;1066;52.540;13.420;2022-12-24T03:59:31;10.83;;;8.13;;
2119;SDS011;1066;52.540;13.420;2022-12-24T04:01:56;10.10;;;8.20;;
2119;SDS011;1066;52.540;13.420;2022-12-24T04:04:21;9.07;;;7.10;;
2119;SDS011;1066;52.540;13.420;2022-12-24T04:06:47;11.20;;;8.17;;
2119;SDS011;1066;52.540;13.420;2022-12-24T04:09:12;9.07;;;7.00;;
2119;SDS011;1066;52.540;13.420;2022-12-24T04:11:37;12.60;;;9.10;;
2119;SDS011;1066;52.540;13.420;2022-12-24T04:14:03;11.63;;;8.60;;
2119;SDS011;1066;52.540;13.420;2022-12-24T04:16:28;7.60;;;6.70;;
2119;SDS011;1066;52.540;13.420;2022-12-24T04:18:53;9.50;;;7.30;;
2119;SDS011;1066;52.540;13.420;2022-12-24T04:21:19;8.53;;;7.57;;
2119;SDS011;1066;52.540;13.420;2022-12-24T04:23:44;9.43;;;6.50;;
2119;SDS011;1066;52.540;13.420;2022-12-24T04:26:12;9.00;;;7.20;;
2119;SDS011;1066;52.540;13.420;2022-12-24T04:28:37;8.80;;;6.43;;
2119;SDS011;1066;52.540;13.420;2022-12-24T04:31:10;7.20;;;6.50;;
2119;SDS011;1066;52.540;13.420;2022-12-24T04:33:37;9.43;;;7.30;;
2119;SDS011;1066;52.540;13.420;2022-12-24T04:36:03;6.23;;;5.63;;
2119;SDS011;1066;52.540;13.420;2022-12-24T04:38:30;8.00;;;6.37;;
2119;SDS011;1066;52.540;13.420;2022-12-24T04:41:00;8.63;;;7.03;;
2119;SDS011;1066;52.540;13.420;2022-12-24T04:43:29;8.03;;;7.20;;
2119;SDS011;1066;52.540;13.420;2022-12-24T04:45:55;8.70;;;7.57;;
2119;SDS011;1066;52.540;13.420;2022-12-24T04:48:21;9.90;;;7.33;;
2119;SDS011;1066;52.540;13.420;2022-12-24T04:50:47;8.30;;;7.30;;
2119;SDS011;1066;52.540;13.420;2022-12-24T04:53:12;6.70;;;6.00;;
2119;SDS011;1066;52.540;13.420;2022-12-24T04:55:42;7.93;;;7.17;;
2119;SDS011;1066;52.540;13.420;2022-12-24T04:58:11;7.00;;;5.97;;
2119;SDS011;1066;52.540;13.420;2022-12-24T05:00:36;9.90;;;6.07;;
2119;SDS011;1066;52.540;13.420;2022-12-24T05:03:02;7.00;;;6.30;;
2119;SDS011;1066;52.540;13.420;2022-12-24T05:05:28;7.90;;;6.60;;
2119;SDS011;1066;52.540;13.420;2022-12-24T05:07:53;7.80;;;6.03;;
2119;SDS011;1066;52.540;13.420;2022-12-24T05:10:18;7.43;;;5.73;;
2119;SDS011;1066;52.540;13.420;2022-12-24T05:12:44;8.60;;;6.27;;
2119;SDS011;1066;52.540;13.420;2022-12-24T05:15:09;7.47;;;6.50;;
2119;SDS011;1066;52.540;13.420;2022-12-24T05:17:35;6.20;;;5.57;;
2119;SDS011;1066;52.540;13.420;2022-12-24T05:20:00;7.20;;;6.50;;
2119;SDS011;1066;52.540;13.420;2022-12-24T05:22:25;7.57;;;6.20;;
2119;SDS011;1066;52.540;13.420;2022-12-24T05:25:09;6.50;;;5.90;;
2119;SDS011;1066;52.540;13.420;2022-12-24T05:27:52;6.57;;;5.40;;
2119;SDS011;1066;52.540;13.420;2022-12-24T05:30:18;7.73;;;6.40;;
2119;SDS011;1066;52.540;13.420;2022-12-24T05:32:44;8.00;;;5.80;;
2119;SDS011;1066;52.540;13.420;2022-12-24T05:35:09;6.40;;;5.80;;
2119;SDS011;1066;52.540;13.420;2022-12-24T05:37:34;6.33;;;5.70;;
2119;SDS011;1066;52.540;13.420;2022-12-24T05:40:00;8.33;;;6.53;;
2119;SDS011;1066;52.540;13.420;2022-12-24T05:42:25;7.33;;;6.10;;
2119;SDS011;1066;52.540;13.420;2022-12-24T05:44:50;6.50;;;5.90;;
2119;SDS011;1066;52.540;13.420;2022-12-24T05:47:16;7.93;;;7.00;;
2119;SDS011;1066;52.540;13.420;2022-12-24T05:49:41;8.17;;;6.87;;
2119;SDS011;1066;52.540;13.420;2022-12-24T05:52:06;7.73;;;6.80;;
2119;SDS011;1066;52.540;13.420;2022-12-24T05:54:32;7.30;;;5.87;;
2119;SDS011;1066;52.540;13.420;2022-12-24T05:56:57;8.50;;;7.67;;
2119;SDS011;1066;52.540;13.420;2022-12-24T05:59:22;8.37;;;7.30;;
2119;SDS011;1066;52.540;13.420;2022-12-24T06:01:48;7.33;;;6.63;;
2119;SDS011;1066;52.540;13.420;2022-12-24T06:04:13;8.33;;;6.70;;
2119;SDS011;1066;52.540;13.420;2022-12-24T06:06:38;8.50;;;7.13;;
2119;SDS011;1066;52.540;13.420;2022-12-24T06:09:04;8.10;;;6.67;;
2119;SDS011;1066;52.540;13.420;2022-12-24T06:11:29;8.70;;;6.97;;
2119;SDS011;1066;52.540;13.420;2022-12-24T06:13:54;7.30;;;6.53;;
2119;SDS011;1066;52.540;13.420;2022-12-24T06:16:20;11.80;;;6.90;;
2119;SDS011;1066;52.540;13.420;2022-12-24T06:18:46;9.27;;;7.37;;
2119;SDS011;1066;52.540;13.420;2022-12-24T06:21:11;8.07;;;7.33;;
2119;SDS011;1066;52.540;13.420;2022-12-24T06:23:38;8.60;;;6.70;;
2119;SDS011;1066;52.540;13.420;2022-12-24T06:26:05;10.73;;;7.30;;
2119;SDS011;1066;52.540;13.420;2022-12-24T06:28:32;12.23;;;8.10;;
2119;SDS011;1066;52.540;13.420;2022-12-24T06:30:58;8.80;;;6.90;;
2119;SDS011;1066;52.540;13.420;2022-12-24T06:33:25;8.23;;;7.30;;
2119;SDS011;1066;52.540;13.420;2022-12-24T06:35:51;14.00;;;8.90;;
2119;SDS011;1066;52.540;13.420;2022-12-24T06:38:16;11.20;;;7.57;;
2119;SDS011;1066;52.540;13.420;2022-12-24T06:40:42;9.17;;;7.53;;
2119;SDS011;1066;52.540;13.420;2022-12-24T06:43:09;9.30;;;8.23;;
2119;SDS011;1066;52.540;13.420;2022-12-24T06:45:34;9.67;;;8.30;;
2119;SDS011;1066;52.540;13.420;2022-12-24T06:48:00;9.60;;;8.13;;
2119;SDS011;1066;52.540;13.420;2022-12-24T06:50:25;10.53;;;8.70;;
2119;SDS011;1066;52.540;13.420;2022-12-24T06:52:51;9.43;;;7.90;;
2119;SDS011;1066;52.540;13.420;2022-12-24T06:55:17;10.33;;;8.20;;
2119;SDS011;1066;52.540;13.420;2022-12-24T06:57:42;9.60;;;8.00;;
2119;SDS011;1066;52.540;13.420;2022-12-24T07:00:08;9.67;;;7.20;;
2119;SDS011;1066;52.540;13.420;2022-12-24T07:02:38;10.03;;;7.93;;
2119;SDS011;1066;52.540;13.420;2022-12-24T07:05:06;10.67;;;7.10;;
2119;SDS011;1066;52.540;13.420;2022-12-24T07:07:34;9.50;;;7.60;;
2119;SDS011;1066;52.540;13.420;2022-12-24T07:10:01;11.10;;;6.70;;
2119;SDS011;1066;52.540;13.420;2022-12-24T07:12:26;10.03;;;7.10;;
2119;SDS011;1066;52.540;13.420;2022-12-24T07:14:51;8.40;;;6.80;;
2119;SDS011;1066;52.540;13.420;2022-12-24T07:17:17;9.40;;;7.53;;
2119;SDS011;1066;52.540;13.420;2022-12-24T07:19:42;8.33;;;7.07;;
2119;SDS011;1066;52.540;13.420;2022-12-24T07:22:07;8.13;;;6.70;;
2119;SDS011;1066;52.540;13.420;2022-12-24T07:24:33;9.03;;;6.70;;
2119;SDS011;1066;52.540;13.420;2022-12-24T07:26:58;9.43;;;7.83;;
2119;SDS011;1066;52.540;13.420;2022-12-24T07:29:23;10.23;;;7.73;;
2119;SDS011;1066;52.540;13.420;2022-12-24T07:31:49;9.70;;;6.77;;
2119;SDS011;1066;52.540;13.420;2022-12-24T07:34:14;10.03;;;7.57;;
2119;SDS011;1066;52.540;13.420;2022-12-24T07:36:39;14.13;;;10.30;;
2119;SDS011;1066;52.540;13.420;2022-12-24T07:39:05;9.33;;;8.07;;
2119;SDS011;1066;52.540;13.420;2022-12-24T07:41:30;9.53;;;7.57;;
2119;SDS011;1066;52.540;13.420;2022-12-24T07:43:55;10.80;;;7.70;;
2119;SDS011;1066;52.540;13.420;2022-12-24T07:46:21;10.73;;;7.70;;
2119;SDS011;1066;52.540;13.420;2022-12-24T07:48:46;8.37;;;6.53;;
2119;SDS011;1066;52.540;13.420;2022-12-24T07:51:11;7.90;;;7.10;;
2119;SDS011;1066;52.540;13.420;2022-12-24T07:53:37;8.40;;;7.00;;
2119;SDS011;1066;52.540;13.420;2022-12-24T07:56:03;9.03;;;7.00;;
2119;SDS011;1066;52.540;13.420;2022-12-24T07:58:28;10.37;;;7.03;;
2119;SDS011;1066;52.540;13.420;2022-12-24T08:00:54;8.53;;;6.97;;
2119;SDS011;1066;52.540;13.420;2022-12-24T08:03:23;7.47;;;6.63;;
2119;SDS011;1066;52.540;13.420;2022-12-24T08:05:48;10.53;;;7.40;;
2119;SDS011;1066;52.540;13.420;2022-12-24T08:08:16;8.60;;;6.77;;
2119;SDS011;1066;52.540;13.420;2022-12-24T08:10:42;11.50;;;8.13;;
2119;SDS011;1066;52.540;13.420;2022-12-24T08:13:08;9.47;;;8.00;;
2119;SDS011;1066;52.540;13.420;2022-12-24T08:15:34;11.40;;;8.30;;
2119;SDS011;1066;52.540;13.420;2022-12-24T08:17:59;9.37;;;7.83;;
2119;SDS011;1066;52.540;13.420;2022-12-24T08:20:24;8.20;;;6.70;;
2119;SDS011;1066;52.540;13.420;2022-12-24T08:22:50;8.60;;;6.80;;
2119;SDS011;1066;52.540;13.420;2022-12-24T08:25:17;9.53;;;8.50;;
2119;SDS011;1066;52.540;13.420;2022-12-24T08:27:42;9.20;;;7.17;;
2119;SDS011;1066;52.540;13.420;2022-12-24T08:30:08;9.23;;;7.10;;
2119;SDS011;1066;52.540;13.420;2022-12-24T08:32:33;8.33;;;6.57;;
2119;SDS011;1066;52.540;13.420;2022-12-24T08:34:59;12.10;;;8.97;;
2119;SDS011;1066;52.540;13.420;2022-12-24T08:37:24;11.67;;;7.73;;
2119;SDS011;1066;52.540;13.420;2022-12-24T08:39:50;10.90;;;7.63;;
2119;SDS011;1066;52.540;13.420;2022-12-24T08:42:15;10.87;;;8.80;;
2119;SDS011;1066;52.540;13.420;2022-12-24T08:44:40;12.67;;;9.93;;
2119;SDS011;1066;52.540;13.420;2022-12-24T08:47:06;12.80;;;9.00;;
2119;SDS011;1066;52.540;13.420;2022-12-24T08:49:31;10.03;;;8.00;;
2119;SDS011;1066;52.540;13.420;2022-12-24T08:51:56;13.90;;;8.93;;
2119;SDS011;1066;52.540;13.420;2022-12-24T08:54:22;13.03;;;9.27;;
2119;SDS011;1066;52.540;13.420;2022-12-24T08:56:49;10.47;;;8.43;;
2119;SDS011;1066;52.540;13.420;2022-12-24T08:59:14;9.00;;;7.20;;
2119;SDS011;1066;52.540;13.420;2022-12-24T09:01:40;9.23;;;7.07;;
2119;SDS011;1066;52.540;13.420;2022-12-24T09:04:05;8.90;;;6.60;;
2119;SDS011;1066;52.540;13.420;2022-12-24T09:06:31;9.80;;;8.00;;
2119;SDS011;1066;52.540;13.420;2022-12-24T09:09:49;9.87;;;7.90;;
2119;SDS011;1066;52.540;13.420;2022-12-24T09:13:07;8.47;;;6.43;;
2119;SDS011;1066;52.540;13.420;2022-12-24T09:16:25;9.63;;;7.60;;
2119;SDS011;1066;52.540;13.420;2022-12-24T09:19:43;7.33;;;6.43;;
2119;SDS011;1066;52.540;13.420;2022-12-24T09:23:00;8.60;;;5.97;;
2119;SDS011;1066;52.540;13.420;2022-12-24T09:26:19;7.63;;;6.27;;
2119;SDS011;1066;52.540;13.420;2022-12-24T09:29:38;8.00;;;6.43;;
2119;SDS011;1066;52.540;13.420;2022-12-24T09:32:09;7.23;;;5.80;;
2119;SDS011;1066;52.540;13.420;2022-12-24T09:35:27;7.90;;;6.60;;
2119;SDS011;1066;52.540;13.420;2022-12-24T09:38:45;9.37;;;7.40;;
2119;SDS011;1066;52.540;13.420;2022-12-24T09:45:28;9.83;;;7.27;;
2119;SDS011;1066;52.540;13.420;2022-12-24T09:48:54;7.80;;;6.60;;
2119;SDS011;1066;52.540;13.420;2022-12-24T09:52:15;9.20;;;7.30;;
2119;SDS011;1066;52.540;13.420;2022-12-24T09:55:55;8.90;;;7.73;;
2119;SDS011;1066;52.540;13.420;2022-12-24T09:59:16;9.63;;;6.67;;
2119;SDS011;1066;52.540;13.420;2022-12-24T10:02:41;8.30;;;7.07;;
2119;SDS011;1066;52.540;13.420;2022-12-24T10:13:03;8.60;;;7.23;;
2119;SDS011;1066;52.540;13.420;2022-12-24T10:16:53;8.00;;;6.67;;
2119;SDS011;1066;52.540;13.420;2022-12-24T10:27:37;11.47;;;8.13;;
2119;SDS011;1066;52.540;13.420;2022-12-24T10:31:06;10.57;;;8.50;;
2119;SDS011;1066;52.540;13.420;2022-12-24T10:34:40;9.97;;;8.80;;
2119;SDS011;1066;52.540;13.420;2022-12-24T10:38:01;13.30;;;10.37;;
2119;SDS011;1066;52.540;13.420;2022-12-24T10:41:18;14.03;;;9.70;;
2119;SDS011;1066;52.540;13.420;2022-12-24T10:44:36;11.80;;;9.73;;
2119;SDS011;1066;52.540;13.420;2022-12-24T10:48:02;11.60;;;10.40;;
2119;SDS011;1066;52.540;13.420;2022-12-24T10:51:32;14.30;;;9.53;;
2119;SDS011;1066;52.540;13.420;2022-12-24T10:58:26;16.00;;;10.97;;
2119;SDS011;1066;52.540;13.420;2022-12-24T11:01:54;13.93;;;11.27;;
2119;SDS011;1066;52.540;13.420;2022-12-24T11:08:47;11.90;;;10.30;;
2119;SDS011;1066;52.540;13.420;2022-12-24T11:12:05;12.00;;;9.67;;
2119;SDS011;1066;52.540;13.420;2022-12-24T11:15:47;12.40;;;8.87;;
2119;SDS011;1066;52.540;13.420;2022-12-24T11:19:15;11.60;;;9.50;;
2119;SDS011;1066;52.540;13.420;2022-12-24T11:22:42;12.70;;;9.07;;
2119;SDS011;1066;52.540;13.420;2022-12-24T11:26:04;12.60;;;9.13;;
2119;SDS011;1066;52.540;13.420;2022-12-24T11:29:42;12.57;;;10.00;;
2119;SDS011;1066;52.540;13.420;2022-12-24T11:36:20;11.20;;;10.03;;
2119;SDS011;1066;52.540;13.420;2022-12-24T11:39:48;15.43;;;9.13;;
2119;SDS011;1066;52.540;13.420;2022-12-24T11:43:17;15.83;;;9.80;;
2119;SDS011;1066;52.540;13.420;2022-12-24T11:46:37;10.70;;;8.90;;
2119;SDS011;1066;52.540;13.420;2022-12-24T11:50:10;13.20;;;8.77;;
2119;SDS011;1066;52.540;13.420;2022-12-24T11:57:11;12.73;;;8.67;;
2119;SDS011;1066;52.540;13.420;2022-12-24T12:00:40;10.57;;;7.80;;
2119;SDS011;1066;52.540;13.420;2022-12-24T12:04:10;8.73;;;6.90;;
2119;SDS011;1066;52.540;13.420;2022-12-24T12:07:35;12.17;;;8.67;;
2119;SDS011;1066;52.540;13.420;2022-12-24T12:10:54;11.40;;;7.43;;
2119;SDS011;1066;52.540;13.420;2022-12-24T12:14:21;10.23;;;8.20;;
2119;SDS011;1066;52.540;13.420;2022-12-24T12:21:22;11.63;;;8.70;;
2119;SDS011;1066;52.540;13.420;2022-12-24T12:24:48;10.47;;;8.30;;
2119;SDS011;1066;52.540;13.420;2022-12-24T12:28:31;11.97;;;8.37;;
2119;SDS011;1066;52.540;13.420;2022-12-24T12:31:55;8.77;;;7.50;;
2119;SDS011;1066;52.540;13.420;2022-12-24T12:35:31;8.67;;;7.77;;
2119;SDS011;1066;52.540;13.420;2022-12-24T12:38:52;11.40;;;8.53;;
2119;SDS011;1066;52.540;13.420;2022-12-24T12:46:42;14.70;;;9.93;;
2119;SDS011;1066;52.540;13.420;2022-12-24T12:56:53;19.27;;;11.50;;
2119;SDS011;1066;52.540;13.420;2022-12-24T13:00:17;10.80;;;7.77;;
2119;SDS011;1066;52.540;13.420;2022-12-24T13:11:27;10.73;;;7.83;;
2119;SDS011;1066;52.540;13.420;2022-12-24T13:22:15;11.13;;;7.40;;
2119;SDS011;1066;52.540;13.420;2022-12-24T13:25:37;9.70;;;6.50;;
2119;SDS011;1066;52.540;13.420;2022-12-24T13:29:16;10.60;;;6.50;;
2119;SDS011;1066;52.540;13.420;2022-12-24T13:32:53;9.77;;;6.13;;
2119;SDS011;1066;52.540;13.420;2022-12-24T13:36:13;7.97;;;6.67;;
2119;SDS011;1066;52.540;13.420;2022-12-24T13:43:19;14.70;;;8.70;;
2119;SDS011;1066;52.540;13.420;2022-12-24T13:50:20;7.97;;;5.90;;
2119;SDS011;1066;52.540;13.420;2022-12-24T13:53:43;9.90;;;6.20;;
2119;SDS011;1066;52.540;13.420;2022-12-24T13:57:14;7.77;;;5.17;;
2119;SDS011;1066;52.540;13.420;2022-12-24T14:01:02;11.47;;;5.67;;
2119;SDS011;1066;52.540;13.420;2022-12-24T14:04:29;9.27;;;6.00;;
2119;SDS011;1066;52.540;13.420;2022-12-24T14:07:50;7.90;;;5.50;;
2119;SDS011;1066;52.540;13.420;2022-12-24T14:11:14;10.43;;;5.30;;
2119;SDS011;1066;52.540;13.420;2022-12-24T14:14:36;15.00;;;5.53;;
2119;SDS011;1066;52.540;13.420;2022-12-24T14:18:19;13.67;;;5.53;;
2119;SDS011;1066;52.540;13.420;2022-12-24T14:21:43;13.17;;;6.70;;
2119;SDS011;1066;52.540;13.420;2022-12-24T14:25:05;17.07;;;5.93;;
2119;SDS011;1066;52.540;13.420;2022-12-24T14:28:27;12.67;;;5.13;;
2119;SDS011;1066;52.540;13.420;2022-12-24T14:31:54;13.03;;;7.00;;
2119;SDS011;1066;52.540;13.420;2022-12-24T14:38:30;44.10;;;20.43;;
2119;SDS011;1066;52.540;13.420;2022-12-24T14:41:53;42.43;;;18.50;;
2119;SDS011;1066;52.540;13.420;2022-12-24T14:45:33;26.63;;;15.03;;
2119;SDS011;1066;52.540;13.420;2022-12-24T14:49:20;17.80;;;6.77;;
2119;SDS011;1066;52.540;13.420;2022-12-24T14:53:50;20.20;;;8.23;;
2119;SDS011;1066;52.540;13.420;2022-12-24T14:56:44;14.03;;;6.27;;
2119;SDS011;1066;52.540;13.420;2022-12-24T15:00:02;11.30;;;5.37;;
2119;SDS011;1066;52.540;13.420;2022-12-24T15:04:04;12.20;;;5.60;;
2119;SDS011;1066;52.540;13.420;2022-12-24T15:07:32;7.30;;;4.90;;
2119;SDS011;1066;52.540;13.420;2022-12-24T15:10:59;12.10;;;5.83;;
2119;SDS011;1066;52.540;13.420;2022-12-24T15:14:21;12.27;;;5.60;;
2119;SDS011;1066;52.540;13.420;2022-12-24T15:17:43;15.83;;;6.90;;
2119;SDS011;1066;52.540;13.420;2022-12-24T15:21:13;18.00;;;6.60;;
2119;SDS011;1066;52.540;13.420;2022-12-24T15:23:44;15.83;;;6.07;;
2119;SDS011;1066;52.540;13.420;2022-12-24T15:26:15;11.93;;;5.97;;
2119;SDS011;1066;52.540;13.420;2022-12-24T15:28:46;13.70;;;6.53;;
2119;SDS011;1066;52.540;13.420;2022-12-24T15:31:13;12.27;;;6.90;;
2119;SDS011;1066;52.540;13.420;2022-12-24T15:33:48;18.63;;;7.23;;
2119;SDS011;1066;52.540;13.420;2022-12-24T15:36:15;16.93;;;6.37;;
2119;SDS011;1066;52.540;13.420;2022-12-24T15:38:49;14.83;;;6.00;;
2119;SDS011;1066;52.540;13.420;2022-12-24T15:41:18;19.50;;;7.73;;
2119;SDS011;1066;52.540;13.420;2022-12-24T15:43:45;17.63;;;6.40;;
2119;SDS011;1066;52.540;13.420;2022-12-24T15:47:05;16.87;;;6.20;;
2119;SDS011;1066;52.540;13.420;2022-12-24T15:50:32;28.33;;;7.37;;
2119;SDS011;1066;52.540;13.420;2022-12-24T15:54:00;18.13;;;6.10;;
2119;SDS011;1066;52.540;13.420;2022-12-24T15:57:25;17.77;;;5.30;;
2119;SDS011;1066;52.540;13.420;2022-12-24T16:00:58;12.73;;;5.47;;
2119;SDS011;1066;52.540;13.420;2022-12-24T16:04:26;19.33;;;6.80;;
2119;SDS011;1066;52.540;13.420;2022-12-24T16:11:24;15.60;;;6.37;;
2119;SDS011;1066;52.540;13.420;2022-12-24T16:14:44;15.50;;;6.30;;
2119;SDS011;1066;52.540;13.420;2022-12-24T16:18:15;13.30;;;6.23;;
2119;SDS011;1066;52.540;13.420;2022-12-24T16:21:48;14.47;;;6.47;;
2119;SDS011;1066;52.540;13.420;2022-12-24T16:28:40;11.00;;;6.07;;
2119;SDS011;1066;52.540;13.420;2022-12-24T16:31:57;14.57;;;7.00;;
2119;SDS011;1066;52.540;13.420;2022-12-24T16:35:24;14.77;;;8.43;;
2119;SDS011;1066;52.540;13.420;2022-12-24T16:38:42;17.67;;;6.63;;
2119;SDS011;1066;52.540;13.420;2022-12-24T16:42:01;14.60;;;6.87;;
2119;SDS011;1066;52.540;13.420;2022-12-24T16:45:40;15.03;;;7.60;;
2119;SDS011;1066;52.540;13.420;2022-12-24T16:48:58;14.97;;;7.07;;
2119;SDS011;1066;52.540;13.420;2022-12-24T16:52:17;19.60;;;7.77;;
2119;SDS011;1066;52.540;13.420;2022-12-24T16:55:39;23.03;;;8.87;;
2119;SDS011;1066;52.540;13.420;2022-12-24T16:58:57;19.70;;;7.70;;
2119;SDS011;1066;52.540;13.420;2022-12-24T17:02:16;16.40;;;7.37;;
2119;SDS011;1066;52.540;13.420;2022-12-24T17:05:38;20.47;;;8.70;;
2119;SDS011;1066;52.540;13.420;2022-12-24T17:08:55;18.60;;;8.30;;
2119;SDS011;1066;52.540;13.420;2022-12-24T17:12:13;17.43;;;7.40;;
2119;SDS011;1066;52.540;13.420;2022-12-24T17:15:32;11.87;;;6.97;;
2119;SDS011;1066;52.540;13.420;2022-12-24T17:18:49;12.73;;;7.30;;
2119;SDS011;1066;52.540;13.420;2022-12-24T17:22:07;7.70;;;5.90;;
2119;SDS011;1066;52.540;13.420;2022-12-24T17:25:25;20.13;;;7.93;;
2119;SDS011;1066;52.540;13.420;2022-12-24T17:28:43;16.80;;;7.67;;
2119;SDS011;1066;52.540;13.420;2022-12-24T17:32:01;13.37;;;7.57;;
2119;SDS011;1066;52.540;13.420;2022-12-24T17:35:19;11.80;;;8.77;;
2119;SDS011;1066;52.540;13.420;2022-12-24T17:38:36;13.70;;;6.80;;
2119;SDS011;1066;52.540;13.420;2022-12-24T17:41:54;19.70;;;8.67;;
2119;SDS011;1066;52.540;13.420;2022-12-24T17:45:12;15.37;;;9.77;;
2119;SDS011;1066;52.540;13.420;2022-12-24T17:48:31;14.23;;;8.10;;
2119;SDS011;1066;52.540;13.420;2022-12-24T17:51:49;20.13;;;9.07;;
2119;SDS011;1066;52.540;13.420;2022-12-24T17:55:07;12.67;;;8.47;;
2119;SDS011;1066;52.540;13.420;2022-12-24T17:58:25;22.07;;;9.10;;
2119;SDS011;1066;52.540;13.420;2022-12-24T18:01:43;16.03;;;8.70;;
2119;SDS011;1066;52.540;13.420;2022-12-24T18:05:02;14.30;;;8.67;;
2119;SDS011;1066;52.540;13.420;2022-12-24T18:08:20;15.60;;;9.33;;
2119;SDS011;1066;52.540;13.420;2022-12-24T18:11:38;14.50;;;8.13;;
2119;SDS011;1066;52.540;13.420;2022-12-24T18:14:56;11.97;;;8.00;;
2119;SDS011;1066;52.540;13.420;2022-12-24T18:18:13;28.47;;;8.70;;
2119;SDS011;1066;52.540;13.420;2022-12-24T18:21:34;14.10;;;8.30;;
2119;SDS011;1066;52.540;13.420;2022-12-24T18:24:51;15.50;;;8.53;;
2119;SDS011;1066;52.540;13.420;2022-12-24T18:28:09;15.63;;;10.07;;
2119;SDS011;1066;52.540;13.420;2022-12-24T18:31:32;14.00;;;8.10;;
2119;SDS011;1066;52.540;13.420;2022-12-24T18:34:50;11.10;;;6.60;;
2119;SDS011;1066;52.540;13.420;2022-12-24T18:38:08;9.27;;;7.43;;
2119;SDS011;1066;52.540;13.420;2022-12-24T18:41:27;15.43;;;8.30;;
2119;SDS011;1066;52.540;13.420;2022-12-24T18:44:45;12.77;;;8.40;;
2119;SDS011;1066;52.540;13.420;2022-12-24T18:48:06;12.00;;;6.90;;
2119;SDS011;1066;52.540;13.420;2022-12-24T18:51:29;13.03;;;7.20;;
2119;SDS011;1066;52.540;13.420;2022-12-24T18:54:47;8.33;;;7.47;;
2119;SDS011;1066;52.540;13.420;2022-12-24T18:58:06;12.20;;;7.03;;